Time;durP1;ratioP1;P1;durP2;ratioP2;P2;SDS_P1;SDS_P2;PMS_P1;PMS_P2;Temp;Humidity;BMP_temperature;BMP_pressure;BME280_temperature;BME280_humidity;BME280_pressure;Samples;Min_cycle;Max_cycle;Signal;HPM_P1;HPM_P2
2021/10/10 00:00:27;;;;;;;13.50;8.53;;;3.70;99.90;;;;;;5067087;28;20203;-69
2021/10/10 00:02:53;;;;;;;14.57;8.47;;;3.70;99.90;;;;;;5051289;28;20202;-69
2021/10/10 00:05:20;;;;;;;14.20;8.03;;;3.70;99.90;;;;;;5066480;28;20569;-68
2021/10/10 00:07:51;;;;;;;15.30;8.97;;;3.70;99.90;;;;;;5070534;28;20212;-69
2021/10/10 00:10:18;;;;;;;14.33;8.30;;;3.80;99.90;;;;;;5054036;28;20578;-68
2021/10/10 00:12:46;;;;;;;18.27;9.20;;;3.70;99.90;;;;;;5062653;28;20205;-69
2021/10/10 00:15:15;;;;;;;17.40;9.07;;;3.40;99.90;;;;;;5069684;28;20592;-68
2021/10/10 00:17:42;;;;;;;13.77;8.17;;;3.50;99.90;;;;;;5053195;28;20616;-68
2021/10/10 00:20:11;;;;;;;15.07;8.33;;;3.40;99.90;;;;;;5061069;28;20631;-69
2021/10/10 00:22:38;;;;;;;15.50;8.50;;;3.20;99.90;;;;;;5055869;28;20687;-69
2021/10/10 00:25:07;;;;;;;14.40;8.63;;;3.20;99.90;;;;;;5055690;28;20668;-68
2021/10/10 00:27:34;;;;;;;13.90;8.43;;;3.30;99.90;;;;;;5055824;28;20202;-69
2021/10/10 00:30:02;;;;;;;14.97;8.63;;;3.30;99.90;;;;;;5053928;28;20198;-68
2021/10/10 00:32:29;;;;;;;15.83;8.43;;;3.20;99.90;;;;;;5066170;28;20625;-69
2021/10/10 00:34:56;;;;;;;13.37;8.27;;;3.00;99.90;;;;;;5069030;28;20683;-70
2021/10/10 00:37:23;;;;;;;15.97;8.27;;;2.60;99.90;;;;;;5057187;28;20198;-70
2021/10/10 00:39:50;;;;;;;17.33;8.80;;;2.30;99.90;;;;;;5051587;28;20210;-69
2021/10/10 00:42:18;;;;;;;16.47;8.43;;;2.30;99.90;;;;;;5061718;28;20207;-68
2021/10/10 00:44:46;;;;;;;16.17;9.07;;;2.40;99.90;;;;;;5060048;28;20217;-68
2021/10/10 00:47:13;;;;;;;16.77;9.30;;;2.50;99.90;;;;;;5049658;28;20572;-70
2021/10/10 00:49:41;;;;;;;17.50;9.43;;;2.80;99.90;;;;;;5059158;28;20296;-69
2021/10/10 00:52:11;;;;;;;17.93;9.87;;;2.80;99.90;;;;;;5069825;28;20201;-69
2021/10/10 00:54:41;;;;;;;17.90;9.30;;;2.80;99.90;;;;;;5068226;28;20621;-70
2021/10/10 00:57:09;;;;;;;15.97;9.00;;;2.70;99.90;;;;;;5056128;28;20211;-70
2021/10/10 00:59:39;;;;;;;15.87;8.90;;;2.70;99.90;;;;;;5069188;28;20206;-70
2021/10/10 01:02:06;;;;;;;19.00;9.40;;;2.50;99.90;;;;;;5068676;28;20199;-69
2021/10/10 01:04:33;;;;;;;18.57;8.87;;;2.60;99.90;;;;;;5065889;28;20224;-69
2021/10/10 01:07:00;;;;;;;17.37;9.07;;;2.70;99.90;;;;;;5057234;28;20206;-69
2021/10/10 01:09:29;;;;;;;15.80;9.17;;;2.70;99.90;;;;;;5052306;28;20218;-69
2021/10/10 01:11:58;;;;;;;15.43;8.30;;;2.70;99.90;;;;;;5049073;28;20215;-69
2021/10/10 01:14:25;;;;;;;17.37;8.50;;;2.20;99.90;;;;;;5053590;28;20214;-68
2021/10/10 01:16:53;;;;;;;18.37;8.93;;;2.40;99.90;;;;;;5063394;28;20214;-69
2021/10/10 01:19:20;;;;;;;16.37;8.97;;;2.40;99.90;;;;;;5061934;28;20199;-68
2021/10/10 01:21:48;;;;;;;18.00;9.23;;;2.20;99.90;;;;;;5052463;28;20210;-69
2021/10/10 01:24:15;;;;;;;20.17;9.93;;;2.00;99.90;;;;;;5068142;28;20213;-68
2021/10/10 01:26:42;;;;;;;17.80;9.20;;;1.90;99.90;;;;;;5068657;28;20569;-68
2021/10/10 01:29:09;;;;;;;18.33;9.90;;;2.10;99.90;;;;;;5056059;28;20221;-68
2021/10/10 01:31:38;;;;;;;16.37;9.53;;;2.20;99.90;;;;;;5063056;28;20209;-68
2021/10/10 01:34:05;;;;;;;18.30;9.80;;;2.20;99.90;;;;;;5050213;28;20214;-68
2021/10/10 01:36:35;;;;;;;15.87;9.20;;;2.30;99.90;;;;;;5056107;28;20225;-68
2021/10/10 01:39:04;;;;;;;18.13;9.63;;;2.40;99.90;;;;;;5054563;28;20198;-68
2021/10/10 01:41:30;;;;;;;16.33;9.00;;;2.50;99.90;;;;;;5062138;28;20206;-68
2021/10/10 01:43:57;;;;;;;14.97;8.70;;;2.60;99.90;;;;;;5065111;28;20231;-68
2021/10/10 01:46:24;;;;;;;16.17;8.83;;;2.50;99.90;;;;;;5065423;28;20202;-68
2021/10/10 01:48:51;;;;;;;16.77;8.93;;;2.40;99.90;;;;;;5066837;28;20202;-68
2021/10/10 01:51:18;;;;;;;16.33;8.63;;;2.20;99.90;;;;;;5069119;28;20237;-68
2021/10/10 01:53:45;;;;;;;18.60;9.80;;;2.20;99.90;;;;;;5067317;28;20293;-69
2021/10/10 01:56:16;;;;;;;16.73;9.00;;;2.20;99.90;;;;;;5056478;28;20230;-69
2021/10/10 01:58:43;;;;;;;19.80;9.93;;;2.20;99.90;;;;;;5052503;28;20683;-69
2021/10/10 02:01:10;;;;;;;18.13;9.17;;;2.30;99.90;;;;;;5065055;28;20203;-69
2021/10/10 02:03:37;;;;;;;17.37;9.53;;;2.40;99.90;;;;;;5065053;28;20297;-69
2021/10/10 02:06:04;;;;;;;18.47;9.87;;;2.30;99.90;;;;;;5066980;28;20217;-69
2021/10/10 02:08:31;;;;;;;17.50;9.33;;;2.40;99.90;;;;;;5065243;28;20642;-69
2021/10/10 02:10:58;;;;;;;18.70;10.00;;;2.20;99.90;;;;;;5067572;28;20247;-69
2021/10/10 02:13:26;;;;;;;16.47;9.37;;;2.30;99.90;;;;;;5066818;28;20241;-69
2021/10/10 02:15:53;;;;;;;18.73;9.70;;;2.40;99.90;;;;;;5065588;28;20727;-68
2021/10/10 02:18:20;;;;;;;19.57;10.13;;;2.40;99.90;;;;;;5061724;28;20583;-68
2021/10/10 02:20:47;;;;;;;15.57;9.37;;;2.30;99.90;;;;;;5065641;28;20210;-69
2021/10/10 02:23:14;;;;;;;18.23;9.77;;;2.10;99.90;;;;;;5068298;28;20202;-69
2021/10/10 02:25:40;;;;;;;17.90;10.20;;;2.10;99.90;;;;;;5061137;28;20287;-74
2021/10/10 02:28:07;;;;;;;16.80;9.67;;;2.00;99.90;;;;;;5049218;28;20210;-74
2021/10/10 02:30:35;;;;;;;19.40;9.37;;;2.10;99.90;;;;;;5065588;28;20566;-74
2021/10/10 02:33:02;;;;;;;18.43;9.00;;;2.00;99.90;;;;;;5058329;28;20655;-74
2021/10/10 02:35:29;;;;;;;17.20;9.30;;;1.90;99.90;;;;;;5068475;28;20230;-74
2021/10/10 02:37:56;;;;;;;18.03;9.57;;;1.90;99.90;;;;;;5061982;28;20209;-74
2021/10/10 02:40:23;;;;;;;17.10;9.43;;;1.90;99.90;;;;;;5061162;28;20210;-75
2021/10/10 02:42:50;;;;;;;18.17;9.27;;;1.60;99.90;;;;;;5057009;28;20206;-74
2021/10/10 02:45:17;;;;;;;16.30;8.70;;;1.40;99.90;;;;;;5068075;28;20781;-74
2021/10/10 02:47:45;;;;;;;19.37;9.20;;;1.50;99.90;;;;;;5072013;28;20210;-74
2021/10/10 02:50:12;;;;;;;18.07;9.20;;;1.60;99.90;;;;;;5063020;28;20595;-75
2021/10/10 02:52:38;;;;;;;17.50;9.03;;;1.70;99.90;;;;;;5072169;28;20229;-75
2021/10/10 02:55:07;;;;;;;17.17;9.37;;;1.90;99.90;;;;;;5063775;28;20222;-74
2021/10/10 02:57:33;;;;;;;17.70;8.90;;;1.90;99.90;;;;;;5058964;28;20199;-74
2021/10/10 03:00:00;;;;;;;17.93;9.03;;;2.10;99.90;;;;;;5070379;28;20212;-75
2021/10/10 03:02:27;;;;;;;14.43;8.30;;;2.10;99.90;;;;;;5052665;28;20209;-75
2021/10/10 03:04:55;;;;;;;18.13;9.23;;;2.10;99.90;;;;;;5061090;28;20202;-74
2021/10/10 03:07:22;;;;;;;16.30;8.50;;;2.30;99.90;;;;;;5068275;28;20202;-75
2021/10/10 03:09:49;;;;;;;15.10;8.37;;;2.30;99.90;;;;;;5071448;28;20728;-75
2021/10/10 03:12:16;;;;;;;14.10;8.40;;;2.20;99.90;;;;;;5071792;28;20206;-74
2021/10/10 03:14:43;;;;;;;17.07;10.10;;;2.40;99.90;;;;;;5066474;28;20206;-74
2021/10/10 03:17:10;;;;;;;16.43;8.87;;;2.50;99.90;;;;;;5058011;28;20199;-74
2021/10/10 03:19:37;;;;;;;16.20;9.03;;;2.70;99.90;;;;;;5054107;28;20214;-73
2021/10/10 03:22:05;;;;;;;16.97;8.97;;;2.70;99.90;;;;;;5061498;28;20718;-73
2021/10/10 03:24:32;;;;;;;15.13;8.33;;;2.50;99.90;;;;;;5070893;28;20204;-73
2021/10/10 03:26:59;;;;;;;15.07;8.43;;;2.60;99.90;;;;;;5067113;28;20199;-73
2021/10/10 03:29:25;;;;;;;14.63;8.33;;;2.80;99.90;;;;;;5057675;28;20202;-73
2021/10/10 03:31:52;;;;;;;18.67;8.50;;;2.80;99.90;;;;;;5066983;28;20678;-73
2021/10/10 03:34:19;;;;;;;13.47;7.80;;;2.80;99.90;;;;;;5068582;28;20668;-73
2021/10/10 03:36:46;;;;;;;17.70;9.10;;;2.60;99.90;;;;;;5066457;28;20218;-73
2021/10/10 03:39:14;;;;;;;15.03;8.27;;;2.80;99.90;;;;;;5068094;28;20574;-73
2021/10/10 03:41:41;;;;;;;14.93;8.10;;;2.80;99.90;;;;;;5070173;28;20206;-73
2021/10/10 03:44:11;;;;;;;17.17;8.33;;;2.50;99.90;;;;;;5067794;28;20523;-73
2021/10/10 03:46:38;;;;;;;15.40;8.70;;;2.40;99.90;;;;;;5069949;28;20292;-73
2021/10/10 03:49:05;;;;;;;15.53;8.23;;;2.30;99.90;;;;;;5067055;28;20229;-73
2021/10/10 03:51:32;;;;;;;16.00;8.03;;;2.10;99.90;;;;;;5066217;28;20572;-73
2021/10/10 03:56:41;;;;;;;13.10;7.40;;;2.10;99.90;;;;;;5043394;28;20375;-73
2021/10/10 03:59:08;;;;;;;14.53;7.63;;;2.10;99.90;;;;;;5069728;28;20289;-73
2021/10/10 04:01:37;;;;;;;16.67;8.40;;;2.30;99.90;;;;;;5065574;28;20559;-74
2021/10/10 04:04:05;;;;;;;14.00;8.03;;;2.30;99.90;;;;;;5068853;28;20293;-74
2021/10/10 04:06:31;;;;;;;16.07;8.70;;;2.20;99.90;;;;;;5064550;28;20655;-73
2021/10/10 04:08:59;;;;;;;16.77;8.47;;;2.20;99.90;;;;;;5067641;28;20202;-74
2021/10/10 04:11:25;;;;;;;16.17;8.50;;;2.10;99.90;;;;;;5069174;28;20239;-73
2021/10/10 04:13:56;;;;;;;16.30;8.70;;;2.10;99.90;;;;;;5064247;28;20222;-74
2021/10/10 04:16:26;;;;;;;14.80;8.53;;;2.10;99.90;;;;;;5068048;28;20215;-73
2021/10/10 04:18:52;;;;;;;15.60;8.70;;;2.00;99.90;;;;;;5068902;28;20202;-73
2021/10/10 04:21:19;;;;;;;14.63;7.53;;;1.90;99.90;;;;;;5065723;28;20206;-74
2021/10/10 04:23:48;;;;;;;16.83;8.50;;;1.70;99.90;;;;;;5064184;28;20198;-75
2021/10/10 04:26:17;;;;;;;15.73;8.17;;;1.40;99.90;;;;;;5053176;28;20278;-75
2021/10/10 04:28:46;;;;;;;14.90;7.87;;;1.50;99.90;;;;;;5063684;28;20208;-75
2021/10/10 04:31:17;;;;;;;17.00;8.80;;;1.60;99.90;;;;;;5065833;28;20202;-74
2021/10/10 04:33:44;;;;;;;13.70;7.80;;;1.60;99.90;;;;;;5059422;28;20207;-75
2021/10/10 04:36:14;;;;;;;15.07;8.10;;;1.40;99.90;;;;;;5069326;28;20221;-74
2021/10/10 04:38:41;;;;;;;14.57;8.03;;;0.90;99.90;;;;;;5051022;28;20210;-74
2021/10/10 04:41:08;;;;;;;14.97;8.37;;;0.80;99.90;;;;;;5065465;28;20210;-72
2021/10/10 04:43:36;;;;;;;14.67;8.10;;;0.80;99.90;;;;;;5064150;28;20216;-72
2021/10/10 04:46:03;;;;;;;13.27;8.03;;;0.90;99.90;;;;;;5068336;28;20202;-73
2021/10/10 04:48:31;;;;;;;14.47;8.30;;;1.00;99.90;;;;;;5067066;28;20260;-73
2021/10/10 04:50:58;;;;;;;14.53;7.43;;;0.90;99.90;;;;;;5069520;28;20222;-72
2021/10/10 04:53:25;;;;;;;16.23;7.73;;;0.90;99.90;;;;;;5055793;28;20203;-72
2021/10/10 04:55:52;;;;;;;12.20;6.90;;;0.90;99.90;;;;;;5065615;28;20233;-72
2021/10/10 04:58:20;;;;;;;15.30;7.53;;;1.00;99.90;;;;;;5064878;28;20469;-74
2021/10/10 05:00:47;;;;;;;14.03;7.60;;;1.20;99.90;;;;;;5062214;28;20210;-73
2021/10/10 05:03:17;;;;;;;15.40;8.30;;;1.10;99.90;;;;;;5068492;28;20671;-73
2021/10/10 05:05:46;;;;;;;18.30;8.17;;;1.10;99.90;;;;;;5068871;28;20735;-73
2021/10/10 05:08:13;;;;;;;14.80;7.67;;;1.20;99.90;;;;;;5065238;28;20248;-73
2021/10/10 05:10:43;;;;;;;15.50;8.07;;;1.20;99.90;;;;;;5069373;28;20551;-72
2021/10/10 05:13:09;;;;;;;18.33;9.27;;;1.00;99.90;;;;;;5052614;28;20661;-73
2021/10/10 05:15:36;;;;;;;25.27;8.50;;;0.90;99.90;;;;;;5052437;28;20213;-72
2021/10/10 05:18:04;;;;;;;19.00;9.00;;;0.80;99.90;;;;;;5061263;28;20213;-73
2021/10/10 05:20:30;;;;;;;22.07;9.23;;;0.80;99.90;;;;;;5066858;28;20220;-72
2021/10/10 05:23:01;;;;;;;23.37;9.63;;;0.90;99.90;;;;;;5057868;28;20199;-72
2021/10/10 05:25:28;;;;;;;17.63;9.03;;;0.80;99.90;;;;;;5060996;28;20198;-72
2021/10/10 05:27:55;;;;;;;15.50;8.53;;;0.90;99.90;;;;;;5061628;28;20213;-72
2021/10/10 05:30:22;;;;;;;16.43;8.20;;;0.90;99.90;;;;;;5070046;28;20572;-72
2021/10/10 05:32:49;;;;;;;16.77;8.10;;;1.10;99.90;;;;;;5065690;28;20198;-72
2021/10/10 05:35:15;;;;;;;15.27;8.20;;;1.40;99.90;;;;;;5070757;28;20234;-72
2021/10/10 05:37:42;;;;;;;13.63;7.77;;;1.30;99.90;;;;;;5068943;28;20218;-73
2021/10/10 05:40:12;;;;;;;16.03;8.53;;;1.10;99.90;;;;;;5069538;28;20206;-74
2021/10/10 05:42:39;;;;;;;14.17;7.97;;;0.90;99.90;;;;;;5066775;28;20200;-71
2021/10/10 05:45:07;;;;;;;14.93;7.83;;;0.90;99.90;;;;;;5071631;28;20560;-70
2021/10/10 05:47:33;;;;;;;14.83;8.10;;;0.80;99.90;;;;;;5070700;28;20660;-71
2021/10/10 05:50:00;;;;;;;14.27;8.20;;;0.70;99.90;;;;;;5066710;28;20229;-67
2021/10/10 05:52:28;;;;;;;14.40;7.70;;;0.50;99.90;;;;;;5068250;28;20667;-71
2021/10/10 05:54:54;;;;;;;14.50;7.50;;;0.40;99.90;;;;;;5069848;28;20606;-72
2021/10/10 05:57:27;;;;;;;14.40;8.07;;;0.50;99.90;;;;;;5057451;28;20578;-71
2021/10/10 06:00:01;;;;;;;14.23;7.47;;;0.60;99.90;;;;;;5061021;28;20260;-71
2021/10/10 06:02:31;;;;;;;13.37;7.57;;;0.70;99.90;;;;;;5063601;28;20202;-72
2021/10/10 06:04:57;;;;;;;15.80;7.93;;;1.00;99.90;;;;;;5071248;28;20571;-71
2021/10/10 06:07:24;;;;;;;17.00;8.17;;;1.20;99.90;;;;;;5067033;28;20202;-71
2021/10/10 06:09:51;;;;;;;15.57;7.93;;;1.20;99.90;;;;;;5064588;28;20207;-71
2021/10/10 06:12:18;;;;;;;14.80;8.17;;;1.30;99.90;;;;;;5055142;28;20569;-71
2021/10/10 06:14:47;;;;;;;16.20;8.23;;;1.20;99.90;;;;;;5059226;28;20210;-71
2021/10/10 06:17:17;;;;;;;16.20;8.63;;;1.40;99.90;;;;;;5062158;28;20498;-71
2021/10/10 06:19:44;;;;;;;15.13;7.90;;;1.40;99.90;;;;;;5059565;28;20205;-71
2021/10/10 06:22:11;;;;;;;13.27;7.60;;;1.60;99.90;;;;;;5063785;28;20560;-71
2021/10/10 06:24:38;;;;;;;15.57;8.00;;;1.80;99.90;;;;;;5061848;28;20199;-71
2021/10/10 06:27:05;;;;;;;14.33;8.03;;;2.10;99.90;;;;;;5054101;28;20207;-71
2021/10/10 06:29:32;;;;;;;15.53;7.77;;;2.00;99.90;;;;;;5058418;28;20213;-71
2021/10/10 06:32:00;;;;;;;17.13;8.33;;;2.10;99.90;;;;;;5058302;28;20572;-71
2021/10/10 06:34:27;;;;;;;14.40;8.37;;;2.10;99.90;;;;;;5050877;28;20680;-71
2021/10/10 06:36:54;;;;;;;17.37;8.47;;;2.10;99.90;;;;;;5058850;28;20218;-71
2021/10/10 06:39:21;;;;;;;12.30;7.27;;;2.20;99.90;;;;;;5060617;28;20199;-71
2021/10/10 06:41:50;;;;;;;18.03;8.60;;;2.10;99.90;;;;;;5064053;28;20207;-71
2021/10/10 06:44:17;;;;;;;16.50;8.17;;;2.30;99.90;;;;;;5070159;28;20255;-71
2021/10/10 06:46:44;;;;;;;14.50;8.63;;;2.30;99.90;;;;;;5069378;28;20205;-71
2021/10/10 06:49:12;;;;;;;16.33;8.17;;;2.40;99.90;;;;;;5061259;28;20229;-71
2021/10/10 06:51:39;;;;;;;18.03;9.13;;;2.60;99.90;;;;;;5067888;28;20195;-71
2021/10/10 06:54:06;;;;;;;15.67;8.60;;;2.80;99.90;;;;;;5069196;28;20206;-71
2021/10/10 06:56:33;;;;;;;17.17;8.83;;;2.90;99.90;;;;;;5067221;28;20218;-71
2021/10/10 06:59:00;;;;;;;13.80;8.23;;;3.00;99.90;;;;;;5056430;28;20194;-71
2021/10/10 07:01:27;;;;;;;13.87;8.07;;;3.10;99.90;;;;;;5070623;28;20202;-71
2021/10/10 07:03:55;;;;;;;16.13;8.17;;;3.10;99.90;;;;;;5064721;28;20191;-72
2021/10/10 07:06:23;;;;;;;16.83;8.30;;;3.20;99.90;;;;;;5067109;28;20747;-72
2021/10/10 07:08:50;;;;;;;13.60;7.50;;;3.20;99.90;;;;;;5066559;28;20201;-71
2021/10/10 07:11:16;;;;;;;15.87;8.33;;;3.40;99.90;;;;;;5050573;28;20570;-72
2021/10/10 07:13:43;;;;;;;17.13;8.50;;;3.40;99.90;;;;;;5055277;28;20203;-72
2021/10/10 07:16:10;;;;;;;16.83;8.07;;;3.50;99.90;;;;;;5052360;28;20712;-72
2021/10/10 07:18:44;;;;;;;14.77;8.23;;;3.60;99.90;;;;;;5052173;28;20213;-72
2021/10/10 07:21:21;;;;;;;14.07;7.77;;;3.70;99.90;;;;;;5051030;28;20214;-72
2021/10/10 07:26:31;;;;;;;15.33;8.20;;;4.00;99.90;;;;;;5041809;28;20211;-73
2021/10/10 07:28:57;;;;;;;12.90;7.87;;;4.10;99.90;;;;;;5052643;28;20682;-73
2021/10/10 07:31:24;;;;;;;13.67;8.23;;;4.20;99.90;;;;;;5074541;28;20197;-72
2021/10/10 07:33:51;;;;;;;18.33;8.50;;;4.20;99.90;;;;;;5077879;28;20199;-72
2021/10/10 07:36:18;;;;;;;14.57;8.70;;;4.40;99.90;;;;;;5075013;28;20745;-72
2021/10/10 07:38:45;;;;;;;19.10;12.07;;;4.40;99.90;;;;;;5072798;28;20681;-73
2021/10/10 07:41:13;;;;;;;19.03;10.03;;;4.60;99.90;;;;;;5074877;28;20237;-73
2021/10/10 07:43:42;;;;;;;18.10;9.13;;;4.60;99.90;;;;;;5074204;28;20208;-73
2021/10/10 07:46:17;;;;;;;16.47;10.17;;;4.70;99.90;;;;;;5072149;28;20202;-73
2021/10/10 07:48:44;;;;;;;16.40;8.17;;;4.80;99.90;;;;;;5064622;28;20285;-73
2021/10/10 07:51:11;;;;;;;15.40;8.13;;;4.80;99.90;;;;;;5065553;28;20210;-73
2021/10/10 07:53:38;;;;;;;14.53;8.17;;;5.10;99.90;;;;;;5070075;28;20213;-73
2021/10/10 07:56:05;;;;;;;14.47;8.37;;;5.20;99.90;;;;;;5069450;28;20202;-73
2021/10/10 07:58:33;;;;;;;16.20;8.77;;;5.10;99.90;;;;;;5070991;28;20218;-74
2021/10/10 08:01:01;;;;;;;13.67;8.40;;;5.20;99.90;;;;;;5069237;28;20202;-73
2021/10/10 08:03:28;;;;;;;14.47;8.93;;;5.30;99.90;;;;;;5073342;28;20206;-73
2021/10/10 08:05:55;;;;;;;17.90;9.37;;;5.40;99.90;;;;;;5071354;28;20195;-73
2021/10/10 08:08:22;;;;;;;16.10;8.70;;;5.50;99.90;;;;;;5072679;28;20567;-73
2021/10/10 08:10:49;;;;;;;17.83;10.17;;;5.80;99.90;;;;;;5075074;28;20203;-73
2021/10/10 08:13:16;;;;;;;15.77;8.77;;;6.20;99.90;;;;;;5082509;28;20217;-73
2021/10/10 08:15:44;;;;;;;16.63;9.13;;;6.20;99.90;;;;;;5076872;28;20213;-73
2021/10/10 08:18:11;;;;;;;18.10;9.47;;;6.20;99.90;;;;;;5075168;28;20230;-73
2021/10/10 08:20:39;;;;;;;17.30;9.60;;;6.10;99.90;;;;;;5076688;28;20661;-73
2021/10/10 08:23:08;;;;;;;14.77;9.37;;;6.10;99.90;;;;;;5072789;28;20198;-73
2021/10/10 08:25:36;;;;;;;14.77;8.97;;;6.30;99.90;;;;;;5065390;28;20643;-73
2021/10/10 08:28:03;;;;;;;15.80;9.10;;;6.20;99.90;;;;;;5070718;28;20207;-73
2021/10/10 08:30:30;;;;;;;16.80;9.70;;;6.30;99.90;;;;;;5068615;28;20213;-73
2021/10/10 08:32:58;;;;;;;16.90;9.73;;;6.30;99.90;;;;;;5070690;28;20644;-73
2021/10/10 08:35:25;;;;;;;15.40;9.10;;;6.40;99.90;;;;;;5074377;28;20682;-73
2021/10/10 08:37:51;;;;;;;14.33;8.93;;;6.40;99.90;;;;;;5077862;28;20625;-73
2021/10/10 08:40:19;;;;;;;15.00;9.33;;;6.40;99.90;;;;;;5073073;28;20289;-73
2021/10/10 08:42:48;;;;;;;14.87;9.07;;;6.50;99.90;;;;;;5070168;28;20202;-73
2021/10/10 08:45:18;;;;;;;13.43;8.93;;;6.70;99.90;;;;;;5078379;28;20203;-73
2021/10/10 08:47:46;;;;;;;14.93;9.63;;;6.90;99.90;;;;;;5070090;28;20919;-73
2021/10/10 08:50:16;;;;;;;16.47;9.20;;;7.00;99.90;;;;;;5068803;28;20201;-73
2021/10/10 08:52:44;;;;;;;16.97;10.17;;;7.10;99.90;;;;;;5066141;28;20656;-73
2021/10/10 08:55:11;;;;;;;14.30;9.57;;;7.50;99.90;;;;;;5075190;28;20198;-73
2021/10/10 08:57:38;;;;;;;14.47;8.87;;;7.90;99.90;;;;;;5073245;28;20229;-73
2021/10/10 09:00:10;;;;;;;14.87;9.47;;;7.90;99.90;;;;;;5082284;28;20210;-73
2021/10/10 09:02:39;;;;;;;17.07;10.20;;;8.20;99.90;;;;;;5074428;28;20210;-73
2021/10/10 09:05:07;;;;;;;15.80;8.90;;;8.60;99.90;;;;;;5075609;28;20316;-73
2021/10/10 09:07:36;;;;;;;14.40;8.93;;;8.80;99.90;;;;;;5066264;28;20202;-74
2021/10/10 09:10:17;;;;;;;16.20;9.13;;;9.00;99.90;;;;;;5070889;28;20259;-73
2021/10/10 09:12:45;;;;;;;14.90;8.70;;;9.30;99.90;;;;;;5064439;28;20207;-74
2021/10/10 09:15:15;;;;;;;15.10;9.20;;;9.40;99.90;;;;;;5069713;28;20198;-74
2021/10/10 09:17:53;;;;;;;19.10;10.33;;;9.40;99.90;;;;;;5069553;28;20241;-66
2021/10/10 09:20:26;;;;;;;15.07;9.77;;;9.60;99.90;;;;;;5070082;28;20198;-67
2021/10/10 09:22:55;;;;;;;16.40;8.47;;;9.80;99.90;;;;;;5068864;28;20210;-67
2021/10/10 09:25:22;;;;;;;13.83;8.73;;;9.80;99.90;;;;;;5069525;28;20194;-66
2021/10/10 09:27:49;;;;;;;16.83;9.70;;;10.00;99.90;;;;;;5068691;28;20198;-66
2021/10/10 09:30:19;;;;;;;13.07;8.43;;;10.00;99.90;;;;;;5072320;28;20544;-67
2021/10/10 09:32:53;;;;;;;13.73;8.47;;;10.20;99.90;;;;;;5064970;28;20209;-66
2021/10/10 09:35:29;;;;;;;15.93;8.97;;;10.30;99.90;;;;;;5067569;28;20205;-67
2021/10/10 09:38:11;;;;;;;14.43;8.63;;;10.60;99.90;;;;;;5068455;28;20222;-66
2021/10/10 09:40:44;;;;;;;16.20;9.13;;;10.90;99.90;;;;;;5064617;28;20216;-67
2021/10/10 09:43:11;;;;;;;14.83;8.73;;;11.30;99.90;;;;;;5068235;28;20204;-67
2021/10/10 09:45:42;;;;;;;16.57;9.13;;;11.50;99.90;;;;;;5068352;28;20213;-67
2021/10/10 09:48:11;;;;;;;15.00;8.80;;;11.70;99.90;;;;;;5065572;28;20209;-67
2021/10/10 09:50:39;;;;;;;13.87;8.63;;;11.90;99.90;;;;;;5064964;28;20686;-67
2021/10/10 09:53:09;;;;;;;13.03;8.53;;;12.20;99.90;;;;;;5069038;28;20202;-67
2021/10/10 09:55:38;;;;;;;12.87;8.00;;;12.50;99.90;;;;;;5074330;28;20201;-67
2021/10/10 09:58:05;;;;;;;13.50;8.67;;;12.80;99.90;;;;;;5068253;28;20222;-67
2021/10/10 10:00:34;;;;;;;13.37;7.10;;;12.90;99.90;;;;;;5071829;28;20202;-67
2021/10/10 10:03:06;;;;;;;11.33;7.33;;;13.00;99.90;;;;;;5063311;28;20675;-67
2021/10/10 10:05:33;;;;;;;14.77;7.97;;;13.40;99.90;;;;;;5068242;28;20213;-67
2021/10/10 10:08:01;;;;;;;15.53;7.93;;;13.60;99.90;;;;;;5069113;28;20599;-67
2021/10/10 10:10:32;;;;;;;12.43;7.47;;;13.80;99.90;;;;;;5068351;28;20612;-67
2021/10/10 10:13:01;;;;;;;11.53;7.50;;;14.10;99.90;;;;;;5073018;28;20198;-67
2021/10/10 10:15:31;;;;;;;14.20;7.93;;;13.90;99.70;;;;;;5068881;28;20204;-67
2021/10/10 10:17:58;;;;;;;13.47;8.27;;;13.80;99.90;;;;;;5074077;28;20218;-67
2021/10/10 10:20:27;;;;;;;12.97;7.40;;;13.50;99.90;;;;;;5070445;28;20648;-67
2021/10/10 10:22:55;;;;;;;12.63;7.57;;;13.70;99.90;;;;;;5066525;28;20682;-67
2021/10/10 10:25:24;;;;;;;13.33;7.57;;;13.80;99.90;;;;;;5077406;28;20198;-67
2021/10/10 10:27:54;;;;;;;12.93;8.27;;;13.90;99.90;;;;;;5073038;28;20206;-67
2021/10/10 10:30:22;;;;;;;12.17;7.97;;;14.20;99.90;;;;;;5068399;28;20201;-67
2021/10/10 10:32:53;;;;;;;13.73;8.03;;;14.20;99.70;;;;;;5070465;28;20206;-67
2021/10/10 10:35:20;;;;;;;15.27;8.70;;;14.10;99.90;;;;;;5071089;28;20264;-67
2021/10/10 10:37:54;;;;;;;12.23;8.03;;;14.00;99.20;;;;;;5068765;28;20230;-67
2021/10/10 10:40:39;;;;;;;10.00;7.23;;;14.30;99.00;;;;;;5068230;28;20202;-67
2021/10/10 10:43:12;;;;;;;11.17;7.70;;;14.70;99.00;;;;;;5068277;28;20202;-67
2021/10/10 10:45:41;;;;;;;11.33;7.70;;;14.80;98.80;;;;;;5069522;28;20210;-67
2021/10/10 10:48:10;;;;;;;13.03;7.70;;;15.60;98.20;;;;;;5072778;28;20194;-67
2021/10/10 10:50:40;;;;;;;8.95;6.90;;;15.80;95.20;;;;;;5071135;28;20215;-67
2021/10/10 10:53:08;;;;;;;12.60;7.13;;;15.90;93.10;;;;;;5068367;28;20202;-67
2021/10/10 10:55:37;;;;;;;12.02;7.28;;;16.10;93.60;;;;;;5071175;28;20198;-67
2021/10/10 10:58:11;;;;;;;10.38;6.75;;;16.10;91.60;;;;;;5067144;28;20226;-67
2021/10/10 11:00:40;;;;;;;11.23;6.70;;;16.20;91.50;;;;;;5069486;28;20237;-67
2021/10/10 11:03:12;;;;;;;9.70;6.20;;;16.70;91.20;;;;;;5073556;28;20201;-67
2021/10/10 11:05:41;;;;;;;8.30;6.60;;;16.30;90.60;;;;;;5072162;28;20277;-67
2021/10/10 11:08:10;;;;;;;8.85;5.82;;;16.10;90.70;;;;;;5069811;28;20195;-67
2021/10/10 11:10:38;;;;;;;8.73;6.00;;;16.20;90.00;;;;;;5067281;28;20210;-67
2021/10/10 11:13:25;;;;;;;8.73;5.78;;;16.40;87.80;;;;;;5073693;28;20209;-67
2021/10/10 11:15:55;;;;;;;8.13;5.80;;;16.30;83.60;;;;;;5074936;28;20678;-67
2021/10/10 11:18:23;;;;;;;9.07;5.25;;;16.10;79.70;;;;;;5070199;28;20232;-67
2021/10/10 11:20:52;;;;;;;10.15;5.45;;;16.30;84.70;;;;;;5069438;28;20209;-67
2021/10/10 11:23:20;;;;;;;9.75;5.38;;;16.70;81.60;;;;;;5072362;28;20213;-67
2021/10/10 11:25:49;;;;;;;7.28;5.53;;;17.10;76.00;;;;;;5072121;28;20208;-67
2021/10/10 11:28:17;;;;;;;9.25;5.63;;;17.40;79.70;;;;;;5069668;28;20198;-67
2021/10/10 11:30:45;;;;;;;10.45;5.10;;;17.60;72.50;;;;;;5073079;28;20562;-67
2021/10/10 11:33:13;;;;;;;8.52;5.05;;;17.80;74.40;;;;;;5070823;28;20644;-67
2021/10/10 11:35:43;;;;;;;7.18;5.45;;;17.30;72.60;;;;;;5074072;28;20669;-67
2021/10/10 11:38:12;;;;;;;7.63;4.82;;;17.00;78.30;;;;;;5071240;28;20226;-67
2021/10/10 11:40:55;;;;;;;7.65;5.18;;;17.20;76.40;;;;;;5070344;28;20651;-67
2021/10/10 11:43:23;;;;;;;6.97;4.80;;;17.30;73.20;;;;;;5071428;28;20289;-67
2021/10/10 11:45:57;;;;;;;11.15;5.05;;;17.40;74.60;;;;;;5070664;28;20236;-68
2021/10/10 11:48:35;;;;;;;8.63;5.43;;;17.30;74.80;;;;;;5072910;28;20654;-67
2021/10/10 11:51:02;;;;;;;8.07;5.05;;;17.40;74.10;;;;;;5067765;28;20268;-67
2021/10/10 11:53:43;;;;;;;6.85;4.25;;;17.20;70.20;;;;;;5071723;28;20656;-67
2021/10/10 11:56:11;;;;;;;9.05;4.65;;;17.20;71.90;;;;;;5072052;28;20694;-67
2021/10/10 11:58:38;;;;;;;6.40;4.30;;;17.00;76.60;;;;;;5069588;28;20588;-67
2021/10/10 12:01:10;;;;;;;5.13;4.18;;;17.10;73.60;;;;;;5069984;28;20205;-67
2021/10/10 12:03:45;;;;;;;6.28;4.13;;;17.30;62.40;;;;;;5069483;28;20211;-68
2021/10/10 12:06:20;;;;;;;6.43;3.65;;;17.60;62.10;;;;;;5071135;28;20284;-67
2021/10/10 12:08:47;;;;;;;5.63;3.88;;;17.60;59.90;;;;;;5068716;28;20292;-67
2021/10/10 12:11:15;;;;;;;5.80;4.00;;;17.60;63.60;;;;;;5067469;28;20205;-67
2021/10/10 12:13:55;;;;;;;5.57;3.83;;;17.90;67.00;;;;;;5067030;28;20194;-68
2021/10/10 12:16:24;;;;;;;5.38;3.75;;;17.80;59.70;;;;;;5068539;28;20199;-67
2021/10/10 12:18:58;;;;;;;6.82;4.28;;;17.90;59.90;;;;;;5069952;28;20228;-68
2021/10/10 12:21:27;;;;;;;6.18;4.03;;;18.10;57.90;;;;;;5071588;28;20202;-68
2021/10/10 12:24:09;;;;;;;5.40;3.85;;;18.20;59.20;;;;;;5072200;28;20229;-67
2021/10/10 12:26:51;;;;;;;6.82;3.60;;;18.10;59.30;;;;;;5070068;28;20198;-67
2021/10/10 12:29:26;;;;;;;5.80;3.85;;;17.90;62.70;;;;;;5068136;28;20259;-67
2021/10/10 12:31:55;;;;;;;6.72;4.10;;;17.70;58.10;;;;;;5070180;28;20244;-67
2021/10/10 12:34:30;;;;;;;6.18;4.03;;;17.80;58.40;;;;;;5071153;28;20572;-67
2021/10/10 12:36:57;;;;;;;6.93;4.25;;;17.90;58.20;;;;;;5074307;28;20216;-68
2021/10/10 12:39:39;;;;;;;9.60;4.50;;;17.90;59.60;;;;;;5073242;28;20218;-68
2021/10/10 12:42:06;;;;;;;10.25;4.53;;;17.60;56.60;;;;;;5068383;28;20260;-68
2021/10/10 12:44:33;;;;;;;8.75;4.65;;;17.30;63.60;;;;;;5072002;28;20210;-68
2021/10/10 12:47:01;;;;;;;7.57;3.75;;;17.20;64.10;;;;;;5072513;28;20225;-68
2021/10/10 12:49:30;;;;;;;6.15;4.32;;;17.10;58.90;;;;;;5071683;28;20232;-68
2021/10/10 12:51:58;;;;;;;5.65;3.85;;;17.10;58.60;;;;;;5068578;28;20214;-68
2021/10/10 12:54:26;;;;;;;7.07;3.70;;;16.90;62.00;;;;;;5068338;28;20554;-68
2021/10/10 12:57:03;;;;;;;5.90;3.88;;;17.00;58.80;;;;;;5064944;28;20202;-68